createdAt,value
2022-09-20T00:03:55.289Z,982.49
2022-09-20T00:09:27.001Z,982.32
2022-09-20T00:14:58.835Z,982.29
2022-09-20T00:20:30.457Z,982.11
2022-09-20T00:26:02.165Z,982.13
2022-09-20T00:31:34.199Z,982.35
2022-09-20T00:37:05.701Z,982.41
2022-09-20T00:42:37.300Z,982.39
2022-09-20T00:48:09.040Z,982.39
2022-09-20T00:53:47.216Z,982.33
2022-09-20T00:59:19.006Z,982.35
2022-09-20T01:04:50.753Z,982.4
2022-09-20T01:10:22.595Z,982.45
2022-09-20T01:15:54.215Z,982.52
2022-09-20T01:21:25.898Z,982.45
2022-09-20T01:26:57.718Z,982.39
2022-09-20T01:32:29.318Z,982.41
2022-09-20T01:38:01.053Z,982.47
2022-09-20T01:43:32.772Z,982.55
2022-09-20T01:49:04.497Z,982.49
2022-09-20T01:54:42.605Z,982.45
2022-09-20T02:00:14.344Z,982.57
2022-09-20T02:05:46.189Z,982.63
2022-09-20T02:11:17.820Z,982.75
2022-09-20T02:16:49.753Z,982.73
2022-09-20T02:22:21.224Z,982.68
2022-09-20T02:27:52.949Z,982.71
2022-09-20T02:33:24.633Z,982.68
2022-09-20T02:38:56.451Z,982.69
2022-09-20T02:44:28.138Z,982.72
2022-09-20T02:49:59.823Z,982.68
2022-09-20T02:55:37.990Z,982.57
2022-09-20T03:01:09.928Z,982.42
2022-09-20T03:06:41.302Z,982.45
2022-09-20T03:12:13.170Z,982.53
2022-09-20T03:17:44.986Z,982.66
2022-09-20T03:23:16.805Z,982.57
2022-09-20T03:28:48.353Z,982.61
2022-09-20T03:34:20.130Z,982.72
2022-09-20T03:39:51.772Z,982.91
2022-09-20T03:45:23.485Z,982.82
2022-09-20T03:50:55.334Z,982.88
2022-09-20T03:56:31.235Z,983.12
2022-09-20T04:02:03.214Z,983.29
2022-09-20T04:07:34.807Z,983.34
2022-09-20T04:13:06.506Z,983.31
2022-09-20T04:18:38.192Z,983.24
2022-09-20T04:24:10.094Z,983.47
2022-09-20T04:29:41.750Z,983.61
2022-09-20T04:35:13.455Z,983.75
2022-09-20T04:40:45.391Z,983.81
2022-09-20T04:46:17.089Z,983.9
2022-09-20T04:51:48.530Z,983.83
2022-09-20T04:57:26.693Z,984.05
2022-09-20T05:02:58.402Z,984.14
2022-09-20T05:08:30.189Z,984.2
2022-09-20T05:14:01.853Z,984.09
2022-09-20T05:19:33.594Z,983.88
2022-09-20T05:25:05.266Z,983.88
2022-09-20T05:30:36.965Z,983.66
2022-09-20T05:36:08.821Z,983.73
2022-09-20T05:41:40.413Z,983.55
2022-09-20T05:47:12.197Z,983.82
2022-09-20T05:52:43.941Z,983.82
2022-09-20T05:58:20.065Z,984.18
2022-09-20T06:03:51.933Z,983.82
2022-09-20T06:09:23.569Z,984.52
2022-09-20T06:14:55.229Z,984.62
2022-09-20T06:20:27.176Z,984.73
2022-09-20T06:25:58.717Z,984.83
2022-09-20T06:31:30.429Z,985.08
2022-09-20T06:37:02.105Z,984.4
2022-09-20T06:42:33.800Z,985.18
2022-09-20T06:48:05.609Z,985.28
2022-09-20T06:53:37.351Z,985.73
2022-09-20T06:59:13.448Z,985.57
2022-09-20T07:04:45.121Z,985.1
2022-09-20T07:10:16.896Z,985.66
2022-09-20T07:15:48.532Z,985.56
2022-09-20T07:21:20.488Z,985.81
2022-09-20T07:26:51.992Z,985.37
2022-09-20T07:32:23.806Z,986.05
2022-09-20T07:37:55.503Z,985.7
2022-09-20T07:43:27.173Z,985.52
2022-09-20T07:48:58.942Z,985.78
2022-09-20T07:54:30.579Z,986.0
2022-09-20T08:00:06.920Z,986.03
2022-09-20T08:05:38.722Z,986.79
2022-09-20T08:11:10.254Z,986.65
2022-09-20T08:16:42.430Z,986.77
2022-09-20T08:22:14.525Z,987.05
2022-09-20T08:27:45.506Z,987.31
2022-09-20T08:33:17.180Z,986.64
2022-09-20T08:39:58.749Z,987.27
2022-09-20T08:44:20.542Z,987.39
2022-09-20T08:49:57.931Z,987.05
2022-09-20T08:55:24.110Z,987.17
2022-09-20T09:01:02.487Z,986.42
2022-09-20T09:06:33.922Z,985.85
2022-09-20T09:12:05.653Z,985.56
2022-09-20T09:17:37.508Z,986.33
2022-09-20T09:23:09.140Z,986.17
2022-09-20T09:28:40.835Z,986.61
2022-09-20T09:34:12.597Z,985.43
2022-09-20T09:39:44.230Z,985.26
2022-09-20T09:45:15.965Z,985.45
2022-09-20T09:50:47.592Z,985.71
2022-09-20T09:56:19.505Z,985.93
2022-09-20T10:01:57.744Z,986.15
2022-09-20T10:07:29.251Z,985.96
2022-09-20T10:13:00.898Z,985.73
2022-09-20T10:18:32.751Z,985.97
2022-09-20T10:24:05.413Z,985.6
2022-09-20T10:29:36.134Z,985.81
2022-09-20T10:35:07.954Z,985.53
2022-09-20T10:40:39.685Z,985.41
2022-09-20T10:46:33.825Z,985.33
2022-09-20T10:51:43.085Z,985.13
2022-09-20T10:57:14.999Z,985.73
2022-09-20T11:02:51.130Z,985.74
2022-09-20T11:08:22.689Z,986.14
2022-09-20T11:13:54.418Z,986.35
2022-09-20T11:19:26.137Z,986.37
2022-09-20T11:24:57.817Z,986.36
2022-09-20T11:30:29.468Z,985.7
2022-09-20T11:36:01.323Z,985.98
2022-09-20T11:41:33.038Z,985.83
2022-09-20T11:47:04.725Z,985.71
2022-09-20T11:52:36.586Z,985.75
2022-09-20T11:58:08.210Z,985.27
2022-09-20T12:03:46.213Z,985.89
2022-09-20T12:09:18.030Z,985.36
2022-09-20T12:14:54.727Z,985.9
2022-09-20T12:20:21.452Z,985.68
2022-09-20T12:25:53.135Z,986.23
2022-09-20T12:31:25.025Z,985.13
2022-09-20T12:36:56.731Z,984.87
2022-09-20T12:42:28.375Z,984.73
2022-09-20T12:48:00.154Z,985.61
2022-09-20T12:53:31.842Z,985.75
2022-09-20T12:59:03.566Z,985.1
2022-09-20T13:04:39.740Z,984.67
2022-09-20T13:10:11.535Z,985.09
2022-09-20T13:15:43.123Z,983.96
2022-09-20T13:21:14.877Z,983.33
2022-09-20T13:26:46.565Z,983.41
2022-09-20T13:32:18.270Z,983.4
2022-09-20T13:37:50.048Z,982.72
2022-09-20T13:43:25.446Z,982.81
2022-09-20T13:48:53.623Z,981.83
2022-09-20T13:54:25.146Z,981.44
2022-09-20T13:59:56.939Z,981.36
2022-09-20T14:05:35.047Z,981.28
2022-09-20T14:11:06.892Z,981.17
2022-09-20T14:16:38.527Z,980.87
2022-09-20T14:22:10.176Z,981.31
2022-09-20T14:27:41.986Z,981.21
2022-09-20T14:33:13.673Z,981.66
2022-09-20T14:38:45.393Z,981.49
2022-09-20T14:44:17.097Z,982.07
2022-09-20T14:49:48.952Z,982.17
2022-09-20T14:55:20.488Z,982.56
2022-09-20T15:00:52.620Z,982.14
2022-09-20T15:06:28.357Z,982.13
2022-09-20T15:12:00.125Z,982.5
2022-09-20T15:17:31.980Z,982.75
2022-09-20T15:23:03.537Z,982.33
2022-09-20T15:28:35.227Z,981.97
2022-09-20T15:34:07.524Z,981.94
2022-09-20T15:39:38.789Z,982.14
2022-09-20T15:45:10.447Z,982.06
2022-09-20T15:50:42.209Z,982.1
2022-09-20T15:56:13.936Z,982.01
2022-09-20T16:01:45.674Z,981.88
2022-09-20T16:07:21.797Z,982.27
2022-09-20T16:12:53.503Z,981.86
2022-09-20T16:18:25.209Z,981.73
2022-09-20T16:23:56.896Z,981.51
2022-09-20T16:29:28.666Z,981.89
2022-09-20T16:35:00.432Z,981.93
2022-09-20T16:40:32.476Z,981.93
2022-09-20T16:46:04.063Z,981.71
2022-09-20T16:51:35.596Z,981.47
2022-09-20T16:57:07.300Z,981.51
2022-09-20T17:02:38.941Z,981.51
2022-09-20T17:08:15.139Z,981.32
2022-09-20T17:13:46.834Z,980.91
2022-09-20T17:19:18.660Z,981.38
2022-09-20T17:24:50.192Z,981.5
2022-09-20T17:30:22.004Z,981.08
2022-09-20T17:35:53.759Z,981.34
2022-09-20T17:41:25.534Z,981.24
2022-09-20T17:46:57.509Z,981.29
2022-09-20T17:52:28.876Z,981.15
2022-09-20T17:58:00.728Z,981.06
2022-09-20T18:03:32.439Z,980.87
2022-09-20T18:09:08.477Z,980.7
2022-09-20T18:14:40.220Z,980.74
2022-09-20T18:20:11.934Z,980.67
2022-09-20T18:25:43.622Z,980.66
2022-09-20T18:31:15.558Z,980.55
2022-09-20T18:36:47.084Z,980.54
2022-09-20T18:42:18.869Z,980.47
2022-09-20T18:47:50.539Z,980.51
2022-09-20T18:53:22.240Z,980.44
2022-09-20T18:58:54.049Z,980.4
2022-09-20T19:04:25.742Z,980.41
2022-09-20T19:10:01.821Z,980.58
2022-09-20T19:15:33.477Z,980.69
2022-09-20T19:21:05.393Z,980.6
2022-09-20T19:26:37.247Z,980.57
2022-09-20T19:32:08.649Z,980.54
2022-09-20T19:37:40.734Z,980.49
2022-09-20T19:43:12.217Z,980.42
2022-09-20T19:48:43.878Z,980.45
2022-09-20T19:54:15.602Z,980.64
2022-09-20T19:59:47.246Z,980.71
2022-09-20T20:05:19.139Z,980.88
2022-09-20T20:10:55.182Z,980.9
2022-09-20T20:16:26.687Z,980.89
2022-09-20T20:21:58.570Z,980.91
2022-09-20T20:27:30.458Z,980.86
2022-09-20T20:33:02.026Z,980.84
2022-09-20T20:38:33.759Z,980.92
2022-09-20T20:44:05.545Z,981.07
2022-09-20T20:49:37.232Z,980.95
2022-09-20T20:55:08.869Z,980.75
2022-09-20T21:00:40.663Z,980.55
2022-09-20T21:06:12.390Z,980.49
2022-09-20T21:11:48.516Z,980.59
2022-09-20T21:17:20.185Z,980.56
2022-09-20T21:22:52.093Z,980.64
2022-09-20T21:28:23.666Z,980.64
2022-09-20T21:33:55.561Z,980.81
2022-09-20T21:39:27.229Z,980.83
2022-09-20T21:44:58.818Z,980.84
2022-09-20T21:50:30.499Z,980.94
2022-09-20T21:56:02.256Z,980.96
2022-09-20T22:01:34.567Z,981.11
2022-09-20T22:07:05.795Z,980.94
2022-09-20T22:12:41.893Z,980.83
2022-09-20T22:18:13.536Z,980.65
2022-09-20T22:23:45.296Z,980.56
2022-09-20T22:29:16.973Z,980.41
2022-09-20T22:34:48.763Z,980.53
2022-09-20T22:40:20.583Z,980.53
2022-09-20T22:45:52.458Z,980.52
2022-09-20T22:51:23.984Z,980.45
2022-09-20T22:56:55.662Z,980.48
2022-09-20T23:02:27.350Z,980.69
2022-09-20T23:07:59.142Z,980.62
2022-09-20T23:13:37.272Z,980.79
2022-09-20T23:19:09.057Z,980.7
2022-09-20T23:24:40.662Z,980.61
2022-09-20T23:30:12.431Z,980.56
2022-09-20T23:35:44.171Z,980.62
2022-09-20T23:41:15.948Z,980.6
2022-09-20T23:46:47.624Z,980.68
2022-09-20T23:52:19.348Z,980.69
2022-09-20T23:57:51.046Z,980.53
